createdAt,value
2018-03-17T00:04:00.451Z,11.32
2018-03-17T00:09:51.355Z,4.7
2018-03-17T00:15:42.234Z,12.18
2018-03-17T00:21:33.173Z,20.96
2018-03-17T00:27:24.099Z,21.91
2018-03-17T00:33:14.943Z,21.26
2018-03-17T00:39:05.850Z,18.4
2018-03-17T00:44:56.793Z,12.93
2018-03-17T00:50:47.651Z,11.29
2018-03-17T00:56:38.565Z,11.85
2018-03-17T01:02:29.460Z,6.53
2018-03-17T01:08:20.344Z,2.97
2018-03-17T01:14:11.205Z,2.55
2018-03-17T01:20:02.274Z,1.57
2018-03-17T01:25:53.026Z,2.31
2018-03-17T01:31:43.895Z,1.54
2018-03-17T01:37:34.818Z,1.17
2018-03-17T01:43:25.723Z,1.83
2018-03-17T01:49:16.682Z,2.62
2018-03-17T01:55:07.569Z,4.97
2018-03-17T02:00:58.437Z,2.74
2018-03-17T02:06:49.396Z,2.37
2018-03-17T02:12:40.249Z,2.06
2018-03-17T02:18:31.081Z,2.59
2018-03-17T02:24:21.986Z,3.56
2018-03-17T02:30:12.911Z,2.31
2018-03-17T02:36:03.855Z,2.12
2018-03-17T02:41:54.745Z,3.47
2018-03-17T02:47:45.656Z,2.18
2018-03-17T02:53:36.485Z,1.85
2018-03-17T02:59:27.383Z,2.81
2018-03-17T03:05:18.256Z,1.77
2018-03-17T03:11:09.174Z,1.56
2018-03-17T03:17:00.098Z,3.86
2018-03-17T03:22:50.957Z,1.34
2018-03-17T03:28:41.926Z,1.63
2018-03-17T03:34:32.785Z,1.53
2018-03-17T03:40:23.635Z,3.73
2018-03-17T03:46:14.521Z,2
2018-03-17T03:52:05.468Z,2.76
2018-03-17T03:57:56.407Z,2.7
2018-03-17T04:03:47.246Z,8.56
2018-03-17T04:09:38.094Z,5.7
2018-03-17T04:15:29.067Z,7.58
2018-03-17T04:21:19.902Z,6.89
2018-03-17T04:27:10.809Z,7.98
2018-03-17T04:33:01.695Z,7.18
2018-03-17T04:38:52.583Z,6.86
2018-03-17T04:44:43.504Z,5.61
2018-03-17T04:50:34.396Z,4.64
2018-03-17T04:56:25.353Z,2.58
2018-03-17T05:02:16.173Z,3.97
2018-03-17T05:08:07.101Z,5.04
2018-03-17T05:13:57.951Z,5.03
2018-03-17T05:19:48.877Z,6.6
2018-03-17T05:25:39.800Z,6.57
2018-03-17T05:31:30.634Z,5.64
2018-03-17T05:37:21.578Z,6.35
2018-03-17T05:43:12.442Z,6.32
2018-03-17T05:49:03.334Z,7.25
2018-03-17T05:54:54.234Z,7.68
2018-03-17T06:00:45.128Z,7.88
2018-03-17T06:06:36.061Z,7.96
2018-03-17T06:12:26.915Z,9.71
2018-03-17T06:18:17.809Z,7.97
2018-03-17T06:24:08.746Z,6.49
2018-03-17T06:29:59.599Z,4.74
2018-03-17T06:35:50.503Z,5.55
2018-03-17T06:41:41.385Z,3.39
2018-03-17T06:47:32.263Z,3.59
2018-03-17T06:53:23.200Z,3.17
2018-03-17T06:59:14.062Z,2.68
2018-03-17T07:05:04.989Z,3.01
2018-03-17T07:10:55.910Z,3.65
2018-03-17T07:16:46.685Z,2.47
2018-03-17T07:22:37.578Z,2.36
2018-03-17T07:28:28.484Z,3.2
2018-03-17T07:34:19.487Z,2.67
2018-03-17T07:40:10.297Z,3.07
2018-03-17T07:46:01.206Z,3.37
2018-03-17T07:51:52.149Z,3.1
2018-03-17T07:57:42.980Z,3.29
2018-03-17T08:03:33.880Z,3.93
2018-03-17T08:09:24.779Z,3.02
2018-03-17T08:15:15.672Z,2.34
2018-03-17T08:21:06.558Z,2.58
2018-03-17T08:26:57.406Z,2.86
2018-03-17T08:32:48.303Z,2.35
2018-03-17T08:38:39.222Z,2.65
2018-03-17T08:44:30.094Z,8.53
2018-03-17T08:50:20.997Z,3.46
2018-03-17T08:56:11.977Z,3.04
2018-03-17T09:02:02.784Z,2
2018-03-17T09:07:53.706Z,2.02
2018-03-17T09:13:44.587Z,2.76
2018-03-17T09:19:35.439Z,2.56
2018-03-17T09:25:26.341Z,3.13
2018-03-17T09:31:17.214Z,2.28
2018-03-17T09:37:08.135Z,2.7
2018-03-17T09:42:59.036Z,3.49
2018-03-17T09:48:50.021Z,2.75
2018-03-17T09:54:40.827Z,4.24
2018-03-17T10:00:31.729Z,3.21
2018-03-17T10:06:22.632Z,3.84
2018-03-17T10:12:13.500Z,2.83
2018-03-17T10:18:04.376Z,3.25
2018-03-17T10:23:55.280Z,4.02
2018-03-17T10:29:46.224Z,4.5
2018-03-17T10:35:37.124Z,3.17
2018-03-17T10:41:27.993Z,7.27
2018-03-17T10:47:18.849Z,6.18
2018-03-17T10:53:09.768Z,4.78
2018-03-17T10:59:00.637Z,4.14
2018-03-17T11:04:51.558Z,13.79
2018-03-17T11:10:42.452Z,5.95
2018-03-17T11:16:33.356Z,3.78
2018-03-17T11:22:24.201Z,5.72
2018-03-17T11:28:15.167Z,4.15
2018-03-17T11:34:06.096Z,12.14
2018-03-17T11:39:56.923Z,4.89
2018-03-17T11:45:47.813Z,2.81
2018-03-17T11:51:38.705Z,2.99
2018-03-17T11:57:29.587Z,3.31
2018-03-17T12:03:20.504Z,3.04
2018-03-17T12:09:11.386Z,2.63
2018-03-17T12:15:02.258Z,2.92
2018-03-17T12:20:53.159Z,3.25
2018-03-17T12:26:44.136Z,2.76
2018-03-17T12:32:34.984Z,3.21
2018-03-17T12:38:25.866Z,3.96
2018-03-17T12:44:16.752Z,4.35
2018-03-17T12:50:07.641Z,3.28
2018-03-17T12:55:58.563Z,2.58
2018-03-17T13:01:49.495Z,2.96
2018-03-17T13:07:40.375Z,3.21
2018-03-17T13:13:31.269Z,3.07
2018-03-17T13:19:22.220Z,4.65
2018-03-17T13:25:13.053Z,3.83
2018-03-17T13:31:03.995Z,2.87
2018-03-17T13:36:54.818Z,2.12
2018-03-17T13:42:45.749Z,2.75
2018-03-17T13:48:36.617Z,2.45
2018-03-17T13:54:27.525Z,1.86
2018-03-17T14:00:18.397Z,2.22
2018-03-17T14:06:09.362Z,2.64
2018-03-17T14:12:00.238Z,3.83
2018-03-17T14:17:51.101Z,4.46
2018-03-17T14:23:42.067Z,2.58
2018-03-17T14:29:32.883Z,2.76
2018-03-17T14:35:23.800Z,1.35
2018-03-17T14:41:14.739Z,2.19
2018-03-17T14:47:05.574Z,1.67
2018-03-17T14:52:56.501Z,1.58
2018-03-17T14:58:47.374Z,2.81
2018-03-17T15:04:38.261Z,2.31
2018-03-17T15:10:29.165Z,5.32
2018-03-17T15:16:20.074Z,2.28
2018-03-17T15:22:11.006Z,1.55
2018-03-17T15:28:01.860Z,1.5
2018-03-17T15:33:52.788Z,3.63
2018-03-17T15:39:43.711Z,3.66
2018-03-17T15:45:34.584Z,2.71
2018-03-17T15:51:25.546Z,2.12
2018-03-17T15:57:16.376Z,2
2018-03-17T16:03:07.241Z,4.12
2018-03-17T16:08:58.159Z,5.76
2018-03-17T16:14:49.091Z,4.48
2018-03-17T16:20:39.923Z,5.69
2018-03-17T16:26:30.836Z,5.67
2018-03-17T16:32:21.815Z,3.6
2018-03-17T16:38:12.602Z,6.62
2018-03-17T16:44:03.528Z,6.97
2018-03-17T16:49:54.449Z,4.44
2018-03-17T16:55:45.329Z,3.21
2018-03-17T17:01:36.220Z,5.11
2018-03-17T17:07:27.163Z,3.35
2018-03-17T17:13:18.009Z,5
2018-03-17T17:19:08.875Z,4.09
2018-03-17T17:24:59.762Z,3.7
2018-03-17T17:30:50.720Z,3.46
2018-03-17T17:36:41.611Z,3.85
2018-03-17T17:42:32.545Z,3.37
2018-03-17T17:48:23.402Z,5.05
2018-03-17T17:54:14.333Z,4.36
2018-03-17T18:00:05.188Z,6.51
2018-03-17T18:05:56.062Z,7.18
2018-03-17T18:11:46.917Z,3.55
2018-03-17T18:17:37.812Z,6.05
2018-03-17T18:23:28.701Z,3.84
2018-03-17T18:29:19.599Z,5.88
2018-03-17T18:35:10.516Z,3.39
2018-03-17T18:41:01.439Z,5.4
2018-03-17T18:46:52.287Z,5.07
2018-03-17T18:52:43.149Z,5.26
2018-03-17T18:58:34.057Z,7.97
2018-03-17T19:04:25.002Z,5.89
2018-03-17T19:10:15.863Z,8.79
2018-03-17T19:16:06.745Z,10.09
2018-03-17T19:21:57.628Z,6
2018-03-17T19:27:48.566Z,7.36
2018-03-17T19:33:39.448Z,6.9
2018-03-17T19:39:30.298Z,5.35
2018-03-17T19:45:21.256Z,7.35
2018-03-17T19:51:12.088Z,10.45
2018-03-17T19:57:03.018Z,6.35
2018-03-17T20:02:53.873Z,10.81
2018-03-17T20:08:44.753Z,9.56
2018-03-17T20:14:35.712Z,9.66
2018-03-17T20:20:26.545Z,5.52
2018-03-17T20:26:17.435Z,8.96
2018-03-17T20:32:08.326Z,7.45
2018-03-17T20:37:59.254Z,15.28
2018-03-17T20:43:50.114Z,18.83
2018-03-17T20:49:40.977Z,8.19
2018-03-17T20:55:31.908Z,18.64
2018-03-17T21:01:22.762Z,14.05
2018-03-17T21:07:13.776Z,8.56
2018-03-17T21:13:04.623Z,9.09
2018-03-17T21:18:55.463Z,13.21
2018-03-17T21:24:46.329Z,57.68
2018-03-17T21:30:37.249Z,21.34
2018-03-17T21:36:28.187Z,14.15
2018-03-17T21:42:19.083Z,17.58
2018-03-17T21:48:09.919Z,10.16
2018-03-17T21:54:00.819Z,13.14
2018-03-17T21:59:51.700Z,13.63
2018-03-17T22:05:42.633Z,8.94
2018-03-17T22:11:33.533Z,9.16
2018-03-17T22:17:24.363Z,12.99
2018-03-17T22:23:15.235Z,12.16
2018-03-17T22:29:06.132Z,10.48
2018-03-17T22:34:57.065Z,6.04
2018-03-17T22:40:48.008Z,8.44
2018-03-17T22:46:38.817Z,5.39
2018-03-17T22:52:29.712Z,6.36
2018-03-17T22:58:20.615Z,4.72
2018-03-17T23:04:11.476Z,12.77
2018-03-17T23:10:02.394Z,8.5
2018-03-17T23:15:53.324Z,4.61
2018-03-17T23:21:44.162Z,4.86
2018-03-17T23:27:35.070Z,10.49
2018-03-17T23:33:25.962Z,9.38
2018-03-17T23:39:16.871Z,7.31
2018-03-17T23:45:07.738Z,11.32
2018-03-17T23:50:58.636Z,8.03
2018-03-17T23:56:49.534Z,10.1
